sensor_id;sensor_type;location;lat;lon;timestamp;P1;durP1;ratioP1;P2;durP2;ratioP2
45114;SDS011;30877;43.706;10.780;2024-02-16T00:01:46;16.10;;;11.65;;
45114;SDS011;30877;43.706;10.780;2024-02-16T00:04:16;15.35;;;11.25;;
45114;SDS011;30877;43.706;10.780;2024-02-16T00:06:46;16.35;;;11.63;;
45114;SDS011;30877;43.706;10.780;2024-02-16T00:09:18;15.52;;;11.82;;
45114;SDS011;30877;43.706;10.780;2024-02-16T00:11:49;14.63;;;10.45;;
45114;SDS011;30877;43.706;10.780;2024-02-16T00:14:20;15.85;;;11.82;;
45114;SDS011;30877;43.706;10.780;2024-02-16T00:16:50;15.75;;;11.38;;
45114;SDS011;30877;43.706;10.780;2024-02-16T00:19:18;17.83;;;11.82;;
45114;SDS011;30877;43.706;10.780;2024-02-16T00:21:47;15.85;;;11.45;;
45114;SDS011;30877;43.706;10.780;2024-02-16T00:24:16;15.02;;;11.13;;
45114;SDS011;30877;43.706;10.780;2024-02-16T00:26:47;15.02;;;11.00;;
45114;SDS011;30877;43.706;10.780;2024-02-16T00:29:15;15.07;;;10.95;;
45114;SDS011;30877;43.706;10.780;2024-02-16T00:31:46;13.77;;;10.80;;
45114;SDS011;30877;43.706;10.780;2024-02-16T00:34:14;14.57;;;11.55;;
45114;SDS011;30877;43.706;10.780;2024-02-16T00:36:43;15.48;;;11.73;;
45114;SDS011;30877;43.706;10.780;2024-02-16T00:39:12;14.70;;;10.68;;
45114;SDS011;30877;43.706;10.780;2024-02-16T00:41:42;14.18;;;11.25;;
45114;SDS011;30877;43.706;10.780;2024-02-16T00:44:10;15.00;;;10.95;;
45114;SDS011;30877;43.706;10.780;2024-02-16T00:46:38;15.10;;;10.75;;
45114;SDS011;30877;43.706;10.780;2024-02-16T00:49:08;14.75;;;11.00;;
45114;SDS011;30877;43.706;10.780;2024-02-16T00:51:38;18.48;;;11.77;;
45114;SDS011;30877;43.706;10.780;2024-02-16T00:54:09;14.60;;;11.43;;
45114;SDS011;30877;43.706;10.780;2024-02-16T00:56:37;15.10;;;11.52;;
45114;SDS011;30877;43.706;10.780;2024-02-16T00:59:07;14.13;;;11.02;;
45114;SDS011;30877;43.706;10.780;2024-02-16T01:01:37;14.05;;;11.00;;
45114;SDS011;30877;43.706;10.780;2024-02-16T01:04:06;15.63;;;11.13;;
45114;SDS011;30877;43.706;10.780;2024-02-16T01:06:35;12.07;;;10.20;;
45114;SDS011;30877;43.706;10.780;2024-02-16T01:09:04;13.13;;;10.43;;
45114;SDS011;30877;43.706;10.780;2024-02-16T01:11:33;15.55;;;10.88;;
45114;SDS011;30877;43.706;10.780;2024-02-16T01:14:02;14.70;;;10.02;;
45114;SDS011;30877;43.706;10.780;2024-02-16T01:16:35;14.18;;;10.63;;
45114;SDS011;30877;43.706;10.780;2024-02-16T01:19:03;12.98;;;10.52;;
45114;SDS011;30877;43.706;10.780;2024-02-16T01:21:34;12.48;;;9.93;;
45114;SDS011;30877;43.706;10.780;2024-02-16T01:24:03;15.32;;;10.98;;
45114;SDS011;30877;43.706;10.780;2024-02-16T01:26:32;15.27;;;10.45;;
45114;SDS011;30877;43.706;10.780;2024-02-16T01:29:02;14.27;;;10.77;;
45114;SDS011;30877;43.706;10.780;2024-02-16T01:31:35;12.90;;;9.73;;
45114;SDS011;30877;43.706;10.780;2024-02-16T01:34:04;16.05;;;10.85;;
45114;SDS011;30877;43.706;10.780;2024-02-16T01:36:34;13.35;;;10.63;;
45114;SDS011;30877;43.706;10.780;2024-02-16T01:39:04;13.02;;;10.55;;
45114;SDS011;30877;43.706;10.780;2024-02-16T01:41:33;17.00;;;11.43;;
45114;SDS011;30877;43.706;10.780;2024-02-16T01:44:07;12.00;;;10.02;;
45114;SDS011;30877;43.706;10.780;2024-02-16T01:46:37;15.73;;;11.60;;
45114;SDS011;30877;43.706;10.780;2024-02-16T01:49:06;14.52;;;10.70;;
45114;SDS011;30877;43.706;10.780;2024-02-16T01:51:35;15.77;;;10.50;;
45114;SDS011;30877;43.706;10.780;2024-02-16T01:54:04;14.02;;;10.27;;
45114;SDS011;30877;43.706;10.780;2024-02-16T01:56:33;14.88;;;10.40;;
45114;SDS011;30877;43.706;10.780;2024-02-16T01:59:02;13.32;;;10.77;;
45114;SDS011;30877;43.706;10.780;2024-02-16T02:01:32;14.23;;;11.43;;
45114;SDS011;30877;43.706;10.780;2024-02-16T02:04:03;14.85;;;10.18;;
45114;SDS011;30877;43.706;10.780;2024-02-16T02:06:34;14.45;;;11.40;;
45114;SDS011;30877;43.706;10.780;2024-02-16T02:09:03;13.45;;;10.95;;
45114;SDS011;30877;43.706;10.780;2024-02-16T02:11:31;13.00;;;10.45;;
45114;SDS011;30877;43.706;10.780;2024-02-16T02:14:01;12.07;;;9.52;;
45114;SDS011;30877;43.706;10.780;2024-02-16T02:16:33;12.68;;;9.45;;
45114;SDS011;30877;43.706;10.780;2024-02-16T02:19:19;12.40;;;8.05;;
45114;SDS011;30877;43.706;10.780;2024-02-16T02:21:48;13.55;;;9.18;;
45114;SDS011;30877;43.706;10.780;2024-02-16T02:24:19;12.38;;;9.35;;
45114;SDS011;30877;43.706;10.780;2024-02-16T02:26:48;13.68;;;8.15;;
45114;SDS011;30877;43.706;10.780;2024-02-16T02:29:18;9.85;;;8.20;;
45114;SDS011;30877;43.706;10.780;2024-02-16T02:31:47;10.70;;;8.05;;
45114;SDS011;30877;43.706;10.780;2024-02-16T02:34:16;9.82;;;7.53;;
45114;SDS011;30877;43.706;10.780;2024-02-16T02:36:45;11.50;;;7.93;;
45114;SDS011;30877;43.706;10.780;2024-02-16T02:39:13;9.50;;;7.28;;
45114;SDS011;30877;43.706;10.780;2024-02-16T02:41:44;9.90;;;6.75;;
45114;SDS011;30877;43.706;10.780;2024-02-16T02:44:13;10.93;;;7.07;;
45114;SDS011;30877;43.706;10.780;2024-02-16T02:46:43;10.40;;;8.23;;
45114;SDS011;30877;43.706;10.780;2024-02-16T02:49:12;9.82;;;7.32;;
45114;SDS011;30877;43.706;10.780;2024-02-16T02:51:41;10.15;;;7.50;;
45114;SDS011;30877;43.706;10.780;2024-02-16T02:54:12;9.65;;;7.88;;
45114;SDS011;30877;43.706;10.780;2024-02-16T02:56:44;11.10;;;7.63;;
45114;SDS011;30877;43.706;10.780;2024-02-16T02:59:13;9.43;;;7.53;;
45114;SDS011;30877;43.706;10.780;2024-02-16T03:01:42;10.98;;;7.07;;
45114;SDS011;30877;43.706;10.780;2024-02-16T03:04:10;11.30;;;7.10;;
45114;SDS011;30877;43.706;10.780;2024-02-16T03:06:40;11.27;;;7.78;;
45114;SDS011;30877;43.706;10.780;2024-02-16T03:09:10;9.73;;;7.55;;
45114;SDS011;30877;43.706;10.780;2024-02-16T03:11:40;11.70;;;7.18;;
45114;SDS011;30877;43.706;10.780;2024-02-16T03:14:13;11.57;;;8.27;;
45114;SDS011;30877;43.706;10.780;2024-02-16T03:17:00;10.43;;;7.72;;
45114;SDS011;30877;43.706;10.780;2024-02-16T03:21:57;10.27;;;7.72;;
45114;SDS011;30877;43.706;10.780;2024-02-16T03:24:28;11.60;;;8.00;;
45114;SDS011;30877;43.706;10.780;2024-02-16T03:26:59;12.45;;;7.57;;
45114;SDS011;30877;43.706;10.780;2024-02-16T03:29:28;11.05;;;7.80;;
45114;SDS011;30877;43.706;10.780;2024-02-16T03:31:57;11.48;;;8.30;;
45114;SDS011;30877;43.706;10.780;2024-02-16T03:34:27;10.52;;;8.30;;
45114;SDS011;30877;43.706;10.780;2024-02-16T03:36:55;11.15;;;8.27;;
45114;SDS011;30877;43.706;10.780;2024-02-16T03:39:26;10.45;;;8.88;;
45114;SDS011;30877;43.706;10.780;2024-02-16T03:41:56;11.48;;;8.05;;
45114;SDS011;30877;43.706;10.780;2024-02-16T03:44:28;12.20;;;8.32;;
45114;SDS011;30877;43.706;10.780;2024-02-16T03:46:57;10.80;;;8.05;;
45114;SDS011;30877;43.706;10.780;2024-02-16T03:49:27;10.77;;;8.30;;
45114;SDS011;30877;43.706;10.780;2024-02-16T03:51:58;9.63;;;7.88;;
45114;SDS011;30877;43.706;10.780;2024-02-16T03:54:30;10.65;;;8.32;;
45114;SDS011;30877;43.706;10.780;2024-02-16T03:57:03;12.05;;;8.30;;
45114;SDS011;30877;43.706;10.780;2024-02-16T03:59:33;11.52;;;8.27;;
45114;SDS011;30877;43.706;10.780;2024-02-16T04:02:04;10.90;;;8.23;;
45114;SDS011;30877;43.706;10.780;2024-02-16T04:04:36;10.93;;;7.68;;
45114;SDS011;30877;43.706;10.780;2024-02-16T04:07:05;9.45;;;7.60;;
45114;SDS011;30877;43.706;10.780;2024-02-16T04:09:34;10.73;;;8.15;;
45114;SDS011;30877;43.706;10.780;2024-02-16T04:12:06;12.20;;;7.90;;
45114;SDS011;30877;43.706;10.780;2024-02-16T04:14:39;10.80;;;7.65;;
45114;SDS011;30877;43.706;10.780;2024-02-16T04:17:09;10.25;;;7.70;;
45114;SDS011;30877;43.706;10.780;2024-02-16T04:19:37;12.20;;;7.90;;
45114;SDS011;30877;43.706;10.780;2024-02-16T04:22:06;11.05;;;7.63;;
45114;SDS011;30877;43.706;10.780;2024-02-16T04:24:34;9.70;;;7.32;;
45114;SDS011;30877;43.706;10.780;2024-02-16T04:27:05;10.13;;;8.13;;
45114;SDS011;30877;43.706;10.780;2024-02-16T04:29:35;11.93;;;7.15;;
45114;SDS011;30877;43.706;10.780;2024-02-16T04:32:03;9.80;;;7.63;;
45114;SDS011;30877;43.706;10.780;2024-02-16T04:34:32;10.50;;;7.32;;
45114;SDS011;30877;43.706;10.780;2024-02-16T04:37:02;10.90;;;7.75;;
45114;SDS011;30877;43.706;10.780;2024-02-16T04:39:31;9.63;;;7.82;;
45114;SDS011;30877;43.706;10.780;2024-02-16T04:42:05;10.48;;;7.43;;
45114;SDS011;30877;43.706;10.780;2024-02-16T04:44:36;11.25;;;7.93;;
45114;SDS011;30877;43.706;10.780;2024-02-16T04:47:08;10.02;;;7.95;;
45114;SDS011;30877;43.706;10.780;2024-02-16T04:49:40;9.00;;;7.63;;
45114;SDS011;30877;43.706;10.780;2024-02-16T04:52:10;9.77;;;7.95;;
45114;SDS011;30877;43.706;10.780;2024-02-16T04:54:40;9.35;;;7.32;;
45114;SDS011;30877;43.706;10.780;2024-02-16T04:57:12;8.98;;;7.70;;
45114;SDS011;30877;43.706;10.780;2024-02-16T04:59:41;9.75;;;7.93;;
45114;SDS011;30877;43.706;10.780;2024-02-16T05:02:11;13.98;;;7.95;;
45114;SDS011;30877;43.706;10.780;2024-02-16T05:04:41;10.82;;;7.70;;
45114;SDS011;30877;43.706;10.780;2024-02-16T05:07:11;9.25;;;6.85;;
45114;SDS011;30877;43.706;10.780;2024-02-16T05:09:43;10.80;;;7.72;;
45114;SDS011;30877;43.706;10.780;2024-02-16T05:12:15;11.23;;;7.57;;
45114;SDS011;30877;43.706;10.780;2024-02-16T05:14:48;11.95;;;7.72;;
45114;SDS011;30877;43.706;10.780;2024-02-16T05:17:18;9.93;;;7.47;;
45114;SDS011;30877;43.706;10.780;2024-02-16T05:19:50;10.25;;;7.35;;
45114;SDS011;30877;43.706;10.780;2024-02-16T05:22:20;10.30;;;6.93;;
45114;SDS011;30877;43.706;10.780;2024-02-16T05:24:49;8.93;;;6.97;;
45114;SDS011;30877;43.706;10.780;2024-02-16T05:27:19;8.57;;;7.15;;
45114;SDS011;30877;43.706;10.780;2024-02-16T05:29:50;10.25;;;7.45;;
45114;SDS011;30877;43.706;10.780;2024-02-16T05:32:21;9.45;;;7.70;;
45114;SDS011;30877;43.706;10.780;2024-02-16T05:34:50;10.57;;;6.40;;
45114;SDS011;30877;43.706;10.780;2024-02-16T05:37:21;9.32;;;7.40;;
45114;SDS011;30877;43.706;10.780;2024-02-16T05:39:50;10.63;;;8.30;;
45114;SDS011;30877;43.706;10.780;2024-02-16T05:42:26;9.48;;;7.38;;
45114;SDS011;30877;43.706;10.780;2024-02-16T05:44:56;9.40;;;7.22;;
45114;SDS011;30877;43.706;10.780;2024-02-16T05:47:25;10.45;;;7.93;;
45114;SDS011;30877;43.706;10.780;2024-02-16T05:49:54;8.52;;;7.05;;
45114;SDS011;30877;43.706;10.780;2024-02-16T05:52:24;9.75;;;7.28;;
45114;SDS011;30877;43.706;10.780;2024-02-16T05:54:52;10.65;;;7.72;;
45114;SDS011;30877;43.706;10.780;2024-02-16T05:57:24;10.40;;;7.65;;
45114;SDS011;30877;43.706;10.780;2024-02-16T05:59:55;9.73;;;6.85;;
45114;SDS011;30877;43.706;10.780;2024-02-16T06:02:26;9.30;;;7.07;;
45114;SDS011;30877;43.706;10.780;2024-02-16T06:04:56;9.80;;;7.47;;
45114;SDS011;30877;43.706;10.780;2024-02-16T06:07:26;8.98;;;7.38;;
45114;SDS011;30877;43.706;10.780;2024-02-16T06:09:55;10.05;;;7.30;;
45114;SDS011;30877;43.706;10.780;2024-02-16T06:12:24;10.10;;;7.13;;
45114;SDS011;30877;43.706;10.780;2024-02-16T06:14:54;9.35;;;7.50;;
45114;SDS011;30877;43.706;10.780;2024-02-16T06:17:25;10.50;;;7.15;;
45114;SDS011;30877;43.706;10.780;2024-02-16T06:19:54;12.02;;;6.88;;
45114;SDS011;30877;43.706;10.780;2024-02-16T06:22:23;11.45;;;8.05;;
45114;SDS011;30877;43.706;10.780;2024-02-16T06:24:52;11.15;;;7.72;;
45114;SDS011;30877;43.706;10.780;2024-02-16T06:27:22;10.90;;;7.55;;
45114;SDS011;30877;43.706;10.780;2024-02-16T06:29:52;10.50;;;7.38;;
45114;SDS011;30877;43.706;10.780;2024-02-16T06:32:25;9.68;;;7.30;;
45114;SDS011;30877;43.706;10.780;2024-02-16T06:34:56;11.50;;;8.07;;
45114;SDS011;30877;43.706;10.780;2024-02-16T06:37:24;11.18;;;7.65;;
45114;SDS011;30877;43.706;10.780;2024-02-16T06:39:54;10.82;;;6.53;;
45114;SDS011;30877;43.706;10.780;2024-02-16T06:42:22;8.45;;;7.38;;
45114;SDS011;30877;43.706;10.780;2024-02-16T06:44:53;9.73;;;7.68;;
45114;SDS011;30877;43.706;10.780;2024-02-16T06:47:22;12.23;;;7.07;;
45114;SDS011;30877;43.706;10.780;2024-02-16T06:49:54;10.73;;;7.68;;
45114;SDS011;30877;43.706;10.780;2024-02-16T06:52:23;13.88;;;8.60;;
45114;SDS011;30877;43.706;10.780;2024-02-16T06:54:52;12.43;;;7.68;;
45114;SDS011;30877;43.706;10.780;2024-02-16T06:57:21;13.20;;;7.88;;
45114;SDS011;30877;43.706;10.780;2024-02-16T06:59:53;12.40;;;7.93;;
45114;SDS011;30877;43.706;10.780;2024-02-16T07:02:25;11.93;;;8.23;;
45114;SDS011;30877;43.706;10.780;2024-02-16T07:04:58;13.30;;;8.20;;
45114;SDS011;30877;43.706;10.780;2024-02-16T07:07:26;15.52;;;8.30;;
45114;SDS011;30877;43.706;10.780;2024-02-16T07:09:55;13.50;;;8.73;;
45114;SDS011;30877;43.706;10.780;2024-02-16T07:12:23;16.73;;;9.65;;
45114;SDS011;30877;43.706;10.780;2024-02-16T07:14:52;14.40;;;9.38;;
45114;SDS011;30877;43.706;10.780;2024-02-16T07:17:23;13.30;;;8.88;;
45114;SDS011;30877;43.706;10.780;2024-02-16T07:19:51;13.00;;;9.15;;
45114;SDS011;30877;43.706;10.780;2024-02-16T07:22:22;11.25;;;8.95;;
45114;SDS011;30877;43.706;10.780;2024-02-16T07:24:50;11.55;;;8.45;;
45114;SDS011;30877;43.706;10.780;2024-02-16T07:27:19;14.02;;;8.80;;
45114;SDS011;30877;43.706;10.780;2024-02-16T07:29:49;10.30;;;7.97;;
45114;SDS011;30877;43.706;10.780;2024-02-16T07:32:17;10.48;;;8.40;;
45114;SDS011;30877;43.706;10.780;2024-02-16T07:34:48;11.10;;;8.63;;
45114;SDS011;30877;43.706;10.780;2024-02-16T07:37:17;11.27;;;7.97;;
45114;SDS011;30877;43.706;10.780;2024-02-16T07:39:48;10.55;;;7.43;;
45114;SDS011;30877;43.706;10.780;2024-02-16T07:42:18;10.93;;;8.05;;
45114;SDS011;30877;43.706;10.780;2024-02-16T07:44:48;10.73;;;8.18;;
45114;SDS011;30877;43.706;10.780;2024-02-16T07:47:18;12.60;;;9.55;;
45114;SDS011;30877;43.706;10.780;2024-02-16T07:49:47;11.02;;;8.52;;
45114;SDS011;30877;43.706;10.780;2024-02-16T07:52:17;43.95;;;37.20;;
45114;SDS011;30877;43.706;10.780;2024-02-16T07:54:49;17.35;;;13.85;;
45114;SDS011;30877;43.706;10.780;2024-02-16T07:57:19;13.30;;;10.65;;
45114;SDS011;30877;43.706;10.780;2024-02-16T07:59:47;14.73;;;10.55;;
45114;SDS011;30877;43.706;10.780;2024-02-16T08:02:16;15.73;;;10.88;;
45114;SDS011;30877;43.706;10.780;2024-02-16T08:04:46;14.15;;;9.20;;
45114;SDS011;30877;43.706;10.780;2024-02-16T08:07:16;11.35;;;9.70;;
45114;SDS011;30877;43.706;10.780;2024-02-16T08:09:46;13.18;;;9.55;;
45114;SDS011;30877;43.706;10.780;2024-02-16T08:12:17;14.18;;;10.00;;
45114;SDS011;30877;43.706;10.780;2024-02-16T08:14:46;11.55;;;8.77;;
45114;SDS011;30877;43.706;10.780;2024-02-16T08:17:15;14.13;;;9.32;;
45114;SDS011;30877;43.706;10.780;2024-02-16T08:19:51;15.57;;;10.00;;
45114;SDS011;30877;43.706;10.780;2024-02-16T08:22:22;12.88;;;8.63;;
45114;SDS011;30877;43.706;10.780;2024-02-16T08:24:53;14.15;;;10.40;;
45114;SDS011;30877;43.706;10.780;2024-02-16T08:27:24;15.05;;;9.98;;
45114;SDS011;30877;43.706;10.780;2024-02-16T08:29:54;12.38;;;10.07;;
45114;SDS011;30877;43.706;10.780;2024-02-16T08:32:25;14.13;;;10.18;;
45114;SDS011;30877;43.706;10.780;2024-02-16T08:34:54;15.43;;;10.00;;
45114;SDS011;30877;43.706;10.780;2024-02-16T08:37:23;10.77;;;9.35;;
45114;SDS011;30877;43.706;10.780;2024-02-16T08:39:55;14.77;;;10.55;;
45114;SDS011;30877;43.706;10.780;2024-02-16T08:42:23;12.70;;;10.82;;
45114;SDS011;30877;43.706;10.780;2024-02-16T08:44:52;25.90;;;19.77;;
45114;SDS011;30877;43.706;10.780;2024-02-16T08:47:22;49.10;;;32.28;;
45114;SDS011;30877;43.706;10.780;2024-02-16T08:49:51;57.45;;;39.80;;
45114;SDS011;30877;43.706;10.780;2024-02-16T08:52:20;30.20;;;23.33;;
45114;SDS011;30877;43.706;10.780;2024-02-16T08:54:49;24.10;;;17.55;;
45114;SDS011;30877;43.706;10.780;2024-02-16T08:57:20;18.90;;;13.25;;
45114;SDS011;30877;43.706;10.780;2024-02-16T08:59:51;18.15;;;13.77;;
45114;SDS011;30877;43.706;10.780;2024-02-16T09:02:19;22.02;;;16.67;;
45114;SDS011;30877;43.706;10.780;2024-02-16T09:04:49;19.58;;;15.23;;
45114;SDS011;30877;43.706;10.780;2024-02-16T09:07:20;21.67;;;15.98;;
45114;SDS011;30877;43.706;10.780;2024-02-16T09:09:51;19.58;;;16.13;;
45114;SDS011;30877;43.706;10.780;2024-02-16T09:12:23;16.42;;;12.23;;
45114;SDS011;30877;43.706;10.780;2024-02-16T09:14:53;15.52;;;11.50;;
45114;SDS011;30877;43.706;10.780;2024-02-16T09:17:22;14.80;;;11.10;;
45114;SDS011;30877;43.706;10.780;2024-02-16T09:19:51;14.18;;;10.88;;
45114;SDS011;30877;43.706;10.780;2024-02-16T09:22:22;17.10;;;9.88;;
45114;SDS011;30877;43.706;10.780;2024-02-16T09:24:56;12.93;;;10.13;;
45114;SDS011;30877;43.706;10.780;2024-02-16T09:27:29;13.25;;;10.27;;
45114;SDS011;30877;43.706;10.780;2024-02-16T09:29:59;12.05;;;9.77;;
45114;SDS011;30877;43.706;10.780;2024-02-16T09:32:28;11.30;;;8.95;;
45114;SDS011;30877;43.706;10.780;2024-02-16T09:34:57;14.02;;;10.70;;
45114;SDS011;30877;43.706;10.780;2024-02-16T09:37:28;12.65;;;10.23;;
45114;SDS011;30877;43.706;10.780;2024-02-16T09:39:56;10.80;;;8.82;;
45114;SDS011;30877;43.706;10.780;2024-02-16T09:42:25;14.35;;;9.52;;
45114;SDS011;30877;43.706;10.780;2024-02-16T09:44:56;12.23;;;9.27;;
45114;SDS011;30877;43.706;10.780;2024-02-16T09:47:25;11.35;;;8.75;;
45114;SDS011;30877;43.706;10.780;2024-02-16T09:49:56;12.35;;;9.13;;
45114;SDS011;30877;43.706;10.780;2024-02-16T09:52:26;11.27;;;8.20;;
45114;SDS011;30877;43.706;10.780;2024-02-16T09:54:55;10.75;;;8.38;;
45114;SDS011;30877;43.706;10.780;2024-02-16T09:57:25;10.70;;;8.27;;
45114;SDS011;30877;43.706;10.780;2024-02-16T09:59:57;12.98;;;8.75;;
45114;SDS011;30877;43.706;10.780;2024-02-16T10:02:41;12.35;;;8.80;;
45114;SDS011;30877;43.706;10.780;2024-02-16T10:05:12;12.98;;;9.07;;
45114;SDS011;30877;43.706;10.780;2024-02-16T10:07:42;9.18;;;8.15;;
45114;SDS011;30877;43.706;10.780;2024-02-16T10:10:21;10.13;;;7.57;;
45114;SDS011;30877;43.706;10.780;2024-02-16T10:12:49;9.48;;;8.15;;
45114;SDS011;30877;43.706;10.780;2024-02-16T10:15:22;9.73;;;7.95;;
45114;SDS011;30877;43.706;10.780;2024-02-16T10:17:58;9.13;;;7.68;;
45114;SDS011;30877;43.706;10.780;2024-02-16T10:20:27;9.18;;;6.60;;
45114;SDS011;30877;43.706;10.780;2024-02-16T10:23:04;10.10;;;7.38;;
45114;SDS011;30877;43.706;10.780;2024-02-16T10:25:35;10.25;;;6.72;;
45114;SDS011;30877;43.706;10.780;2024-02-16T10:28:06;8.80;;;6.88;;
45114;SDS011;30877;43.706;10.780;2024-02-16T10:30:41;9.95;;;7.20;;
45114;SDS011;30877;43.706;10.780;2024-02-16T10:33:12;9.60;;;6.38;;
45114;SDS011;30877;43.706;10.780;2024-02-16T10:35:41;8.93;;;6.65;;
45114;SDS011;30877;43.706;10.780;2024-02-16T10:38:12;7.68;;;6.40;;
45114;SDS011;30877;43.706;10.780;2024-02-16T10:40:44;6.57;;;5.50;;
45114;SDS011;30877;43.706;10.780;2024-02-16T10:43:16;8.48;;;6.65;;
45114;SDS011;30877;43.706;10.780;2024-02-16T10:45:47;7.35;;;5.30;;
45114;SDS011;30877;43.706;10.780;2024-02-16T10:48:20;7.13;;;6.07;;
45114;SDS011;30877;43.706;10.780;2024-02-16T10:50:49;7.70;;;5.93;;
45114;SDS011;30877;43.706;10.780;2024-02-16T10:53:24;8.50;;;6.22;;
45114;SDS011;30877;43.706;10.780;2024-02-16T10:55:57;9.38;;;6.18;;
45114;SDS011;30877;43.706;10.780;2024-02-16T10:58:34;7.88;;;5.68;;
45114;SDS011;30877;43.706;10.780;2024-02-16T11:01:09;10.57;;;6.25;;
45114;SDS011;30877;43.706;10.780;2024-02-16T11:03:41;8.50;;;6.15;;
45114;SDS011;30877;43.706;10.780;2024-02-16T11:06:14;7.75;;;6.47;;
45114;SDS011;30877;43.706;10.780;2024-02-16T11:08:48;9.55;;;6.97;;
45114;SDS011;30877;43.706;10.780;2024-02-16T11:11:22;9.93;;;7.18;;
45114;SDS011;30877;43.706;10.780;2024-02-16T11:13:53;11.10;;;7.32;;
45114;SDS011;30877;43.706;10.780;2024-02-16T11:16:27;10.73;;;8.27;;
45114;SDS011;30877;43.706;10.780;2024-02-16T11:18:59;13.55;;;11.20;;
45114;SDS011;30877;43.706;10.780;2024-02-16T11:21:32;9.48;;;7.63;;
45114;SDS011;30877;43.706;10.780;2024-02-16T11:24:06;11.02;;;8.75;;
45114;SDS011;30877;43.706;10.780;2024-02-16T11:26:41;11.32;;;9.40;;
45114;SDS011;30877;43.706;10.780;2024-02-16T11:29:12;12.88;;;8.65;;
45114;SDS011;30877;43.706;10.780;2024-02-16T11:31:44;11.75;;;8.85;;
45114;SDS011;30877;43.706;10.780;2024-02-16T11:34:21;10.75;;;8.80;;
45114;SDS011;30877;43.706;10.780;2024-02-16T11:36:54;11.90;;;7.57;;
45114;SDS011;30877;43.706;10.780;2024-02-16T11:39:24;9.18;;;7.75;;
45114;SDS011;30877;43.706;10.780;2024-02-16T11:41:59;8.50;;;7.43;;
45114;SDS011;30877;43.706;10.780;2024-02-16T11:44:32;13.05;;;8.07;;
45114;SDS011;30877;43.706;10.780;2024-02-16T11:47:04;9.27;;;7.78;;
45114;SDS011;30877;43.706;10.780;2024-02-16T11:49:40;12.15;;;8.00;;
45114;SDS011;30877;43.706;10.780;2024-02-16T11:52:09;8.98;;;7.30;;
45114;SDS011;30877;43.706;10.780;2024-02-16T11:54:43;10.50;;;7.18;;
45114;SDS011;30877;43.706;10.780;2024-02-16T11:57:14;9.40;;;7.15;;
45114;SDS011;30877;43.706;10.780;2024-02-16T11:59:44;16.08;;;9.93;;
45114;SDS011;30877;43.706;10.780;2024-02-16T12:02:20;12.70;;;10.05;;
45114;SDS011;30877;43.706;10.780;2024-02-16T12:04:58;12.60;;;10.45;;
45114;SDS011;30877;43.706;10.780;2024-02-16T12:07:31;13.60;;;9.90;;
45114;SDS011;30877;43.706;10.780;2024-02-16T12:10:02;12.10;;;9.70;;
45114;SDS011;30877;43.706;10.780;2024-02-16T12:12:34;14.02;;;10.18;;
45114;SDS011;30877;43.706;10.780;2024-02-16T12:15:04;12.60;;;9.75;;
45114;SDS011;30877;43.706;10.780;2024-02-16T12:17:36;12.40;;;8.90;;
45114;SDS011;30877;43.706;10.780;2024-02-16T12:20:10;11.88;;;9.10;;
45114;SDS011;30877;43.706;10.780;2024-02-16T12:22:41;12.88;;;8.77;;
45114;SDS011;30877;43.706;10.780;2024-02-16T12:25:09;10.80;;;8.88;;
45114;SDS011;30877;43.706;10.780;2024-02-16T12:27:38;12.38;;;8.60;;
45114;SDS011;30877;43.706;10.780;2024-02-16T12:30:09;14.80;;;8.88;;
45114;SDS011;30877;43.706;10.780;2024-02-16T12:32:43;11.68;;;8.95;;
45114;SDS011;30877;43.706;10.780;2024-02-16T12:35:12;13.45;;;9.23;;
45114;SDS011;30877;43.706;10.780;2024-02-16T12:37:41;12.88;;;9.27;;
45114;SDS011;30877;43.706;10.780;2024-02-16T12:40:09;12.43;;;9.68;;
45114;SDS011;30877;43.706;10.780;2024-02-16T12:42:38;13.45;;;9.80;;
45114;SDS011;30877;43.706;10.780;2024-02-16T12:45:07;13.68;;;9.43;;
45114;SDS011;30877;43.706;10.780;2024-02-16T12:47:39;12.75;;;9.52;;
45114;SDS011;30877;43.706;10.780;2024-02-16T12:50:13;15.05;;;10.75;;
45114;SDS011;30877;43.706;10.780;2024-02-16T12:52:41;15.55;;;9.88;;
45114;SDS011;30877;43.706;10.780;2024-02-16T12:55:20;12.55;;;9.88;;
45114;SDS011;30877;43.706;10.780;2024-02-16T12:57:53;13.85;;;10.23;;
45114;SDS011;30877;43.706;10.780;2024-02-16T13:00:22;15.82;;;11.27;;
45114;SDS011;30877;43.706;10.780;2024-02-16T13:02:53;14.85;;;10.05;;
45114;SDS011;30877;43.706;10.780;2024-02-16T13:05:23;15.35;;;11.05;;
45114;SDS011;30877;43.706;10.780;2024-02-16T13:07:52;14.93;;;10.90;;
45114;SDS011;30877;43.706;10.780;2024-02-16T13:10:22;15.55;;;11.43;;
45114;SDS011;30877;43.706;10.780;2024-02-16T13:12:52;20.52;;;12.40;;
45114;SDS011;30877;43.706;10.780;2024-02-16T13:15:24;16.90;;;12.88;;
45114;SDS011;30877;43.706;10.780;2024-02-16T13:17:55;17.15;;;12.98;;
45114;SDS011;30877;43.706;10.780;2024-02-16T13:20:27;16.23;;;12.10;;
45114;SDS011;30877;43.706;10.780;2024-02-16T13:22:56;16.55;;;11.82;;
45114;SDS011;30877;43.706;10.780;2024-02-16T13:25:27;19.75;;;11.48;;
45114;SDS011;30877;43.706;10.780;2024-02-16T13:27:56;12.95;;;10.23;;
45114;SDS011;30877;43.706;10.780;2024-02-16T13:30:25;13.25;;;10.63;;
45114;SDS011;30877;43.706;10.780;2024-02-16T13:32:55;13.68;;;9.75;;
45114;SDS011;30877;43.706;10.780;2024-02-16T13:35:27;14.10;;;10.20;;
45114;SDS011;30877;43.706;10.780;2024-02-16T13:37:56;13.20;;;10.65;;
45114;SDS011;30877;43.706;10.780;2024-02-16T13:40:25;13.68;;;10.98;;
45114;SDS011;30877;43.706;10.780;2024-02-16T13:42:57;16.05;;;11.55;;
45114;SDS011;30877;43.706;10.780;2024-02-16T13:45:47;12.88;;;11.30;;
45114;SDS011;30877;43.706;10.780;2024-02-16T13:48:17;14.43;;;10.82;;
45114;SDS011;30877;43.706;10.780;2024-02-16T13:50:51;16.20;;;12.30;;
45114;SDS011;30877;43.706;10.780;2024-02-16T13:53:23;15.10;;;10.40;;
45114;SDS011;30877;43.706;10.780;2024-02-16T13:55:51;15.63;;;10.68;;
45114;SDS011;30877;43.706;10.780;2024-02-16T13:58:21;12.77;;;10.20;;
45114;SDS011;30877;43.706;10.780;2024-02-16T14:00:50;17.15;;;10.73;;
45114;SDS011;30877;43.706;10.780;2024-02-16T14:03:21;15.27;;;11.23;;
45114;SDS011;30877;43.706;10.780;2024-02-16T14:05:51;17.38;;;12.13;;
45114;SDS011;30877;43.706;10.780;2024-02-16T14:08:21;16.20;;;12.50;;
45114;SDS011;30877;43.706;10.780;2024-02-16T14:10:53;19.38;;;13.68;;
45114;SDS011;30877;43.706;10.780;2024-02-16T14:13:22;17.25;;;13.10;;
45114;SDS011;30877;43.706;10.780;2024-02-16T14:15:52;20.38;;;14.43;;
45114;SDS011;30877;43.706;10.780;2024-02-16T14:18:21;20.33;;;15.48;;
45114;SDS011;30877;43.706;10.780;2024-02-16T14:21:04;22.85;;;17.13;;
45114;SDS011;30877;43.706;10.780;2024-02-16T14:23:34;25.60;;;17.15;;
45114;SDS011;30877;43.706;10.780;2024-02-16T14:26:07;24.13;;;18.02;;
45114;SDS011;30877;43.706;10.780;2024-02-16T14:28:37;29.38;;;20.83;;
45114;SDS011;30877;43.706;10.780;2024-02-16T14:31:07;27.95;;;20.65;;
45114;SDS011;30877;43.706;10.780;2024-02-16T14:33:40;31.60;;;23.20;;
45114;SDS011;30877;43.706;10.780;2024-02-16T14:36:13;30.40;;;21.40;;
45114;SDS011;30877;43.706;10.780;2024-02-16T14:38:46;34.97;;;24.33;;
45114;SDS011;30877;43.706;10.780;2024-02-16T14:41:18;37.67;;;26.52;;